Time;durP1;ratioP1;P1;durP2;ratioP2;P2;SDS_P1;SDS_P2;PMS_P1;PMS_P2;Temp;Humidity;BMP_temperature;BMP_pressure;BME280_temperature;BME280_humidity;BME280_pressure;Samples;Min_cycle;Max_cycle;Signal;HPM_P1;HPM_P2
2022/01/08 00:01:18;;;;;;;14.27;12.70;;;;;;;2.33;84.31;100568.09;4994696;28;20466;-46
2022/01/08 00:03:46;;;;;;;18.73;13.63;;;;;;;2.34;84.10;100568.91;4995341;28;20474;-44
2022/01/08 00:06:13;;;;;;;15.00;13.40;;;;;;;2.34;84.27;100569.75;4994966;28;20474;-44
2022/01/08 00:08:41;;;;;;;17.63;13.47;;;;;;;2.32;84.83;100566.47;4995080;28;20537;-44
2022/01/08 00:11:14;;;;;;;21.00;15.27;;;;;;;2.31;84.76;100577.13;4994220;28;20465;-43
2022/01/08 00:13:45;;;;;;;17.40;13.73;;;;;;;2.35;83.90;100574.06;4995343;28;20904;-44
2022/01/08 00:16:13;;;;;;;15.27;13.77;;;;;;;2.38;83.94;100575.56;4994999;28;20548;-45
2022/01/08 00:18:40;;;;;;;15.40;13.03;;;;;;;2.39;84.56;100577.22;4995008;28;20537;-43
2022/01/08 00:21:08;;;;;;;13.63;12.10;;;;;;;2.39;85.43;100579.84;4994213;28;20466;-43
2022/01/08 00:23:36;;;;;;;15.37;13.80;;;;;;;2.36;86.22;100583.59;4994689;28;20478;-44
2022/01/08 00:26:04;;;;;;;21.67;14.10;;;;;;;2.36;86.47;100582.78;4994866;28;20457;-45
2022/01/08 00:28:34;;;;;;;18.83;13.10;;;;;;;2.39;85.99;100585.13;4994826;28;20458;-44
2022/01/08 00:31:03;;;;;;;15.63;13.80;;;;;;;2.41;85.81;100580.53;4994135;28;20545;-45
2022/01/08 00:33:31;;;;;;;23.80;14.53;;;;;;;2.40;86.52;100589.38;4994691;28;20432;-45
2022/01/08 00:35:58;;;;;;;20.73;13.97;;;;;;;2.37;86.65;100581.78;4994432;28;20458;-44
2022/01/08 00:38:26;;;;;;;16.83;13.77;;;;;;;2.41;86.55;100577.91;4994781;28;20436;-45
2022/01/08 00:40:53;;;;;;;23.30;13.47;;;;;;;2.36;87.02;100580.94;4993886;28;21008;-45
2022/01/08 00:43:21;;;;;;;22.57;14.57;;;;;;;2.41;86.57;100588.41;5001439;28;20564;-46
2022/01/08 00:45:50;;;;;;;20.57;15.33;;;;;;;2.41;86.72;100584.00;5006879;28;20458;-44
2022/01/08 00:48:18;;;;;;;15.93;14.10;;;;;;;2.44;86.69;100588.97;4994323;28;20780;-44
2022/01/08 00:50:46;;;;;;;15.53;13.50;;;;;;;2.43;87.50;100583.81;4993559;28;20929;-44
2022/01/08 00:53:14;;;;;;;25.50;15.70;;;;;;;2.41;88.46;100588.41;4994510;28;20433;-44
2022/01/08 00:55:41;;;;;;;15.10;13.53;;;;;;;2.36;88.52;100585.41;4994210;28;20459;-43
2022/01/08 00:58:09;;;;;;;21.90;14.40;;;;;;;2.35;87.43;100584.59;4994228;28;20518;-44
2022/01/08 01:00:37;;;;;;;22.40;15.60;;;;;;;2.37;86.74;100585.25;4994041;28;20430;-45
2022/01/08 01:03:06;;;;;;;20.07;14.70;;;;;;;2.39;86.44;100582.50;4993669;28;20570;-45
2022/01/08 01:05:34;;;;;;;17.47;15.17;;;;;;;2.39;86.68;100578.03;5012861;23;20499;-47
2022/01/08 01:08:01;;;;;;;20.50;14.27;;;;;;;2.37;87.61;100587.88;5022361;28;20429;-49
2022/01/08 01:10:29;;;;;;;19.13;15.13;;;;;;;2.39;87.41;100590.38;5032597;28;20428;-45
2022/01/08 01:12:57;;;;;;;17.97;15.43;;;;;;;2.40;87.16;100586.75;5031938;28;20459;-48
2022/01/08 01:15:25;;;;;;;21.20;15.07;;;;;;;2.39;86.72;100588.56;5032374;28;20436;-45
2022/01/08 01:17:52;;;;;;;17.90;14.90;;;;;;;2.43;86.17;100586.47;5032262;28;20440;-50
2022/01/08 01:20:21;;;;;;;16.20;14.50;;;;;;;2.45;86.05;100582.69;5032375;28;20445;-50
2022/01/08 01:22:56;;;;;;;22.90;15.67;;;;;;;2.44;86.27;100580.22;5031952;28;20504;-46
2022/01/08 01:25:29;;;;;;;29.50;16.87;;;;;;;2.45;85.97;100574.00;5033017;28;20510;-44
2022/01/08 01:28:08;;;;;;;17.27;15.00;;;;;;;2.48;85.52;100585.03;5032987;28;20494;-49
2022/01/08 01:41:54;;;;;;;21.57;15.27;;;;;;;2.54;84.82;100570.47;5012462;28;20464;-45
2022/01/08 01:47:10;;;;;;;18.27;13.50;;;;;;;2.57;84.67;100570.19;4993094;28;20466;-49
2022/01/08 01:49:40;;;;;;;16.37;13.33;;;;;;;2.58;84.93;100583.19;4993383;28;20438;-44
2022/01/08 01:52:11;;;;;;;17.67;11.93;;;;;;;2.57;85.56;100576.25;5004982;28;20461;-45
2022/01/08 01:54:39;;;;;;;15.90;14.20;;;;;;;2.58;85.44;100575.28;5012712;28;20560;-44
2022/01/08 01:57:08;;;;;;;17.30;13.23;;;;;;;2.59;85.37;100569.03;5012550;28;20468;-42
2022/01/08 01:59:37;;;;;;;13.73;11.93;;;;;;;2.62;85.55;100568.75;5012378;28;20764;-47
2022/01/08 02:02:06;;;;;;;14.83;11.60;;;;;;;2.61;85.97;100574.16;5011535;28;20471;-49
2022/01/08 02:04:34;;;;;;;13.57;10.50;;;;;;;2.60;86.34;100569.84;5011881;28;20555;-44
2022/01/08 02:07:02;;;;;;;12.10;10.07;;;;;;;2.61;86.06;100582.88;5012189;28;20500;-49
2022/01/08 02:09:33;;;;;;;15.10;10.67;;;;;;;2.61;86.07;100574.16;5012476;28;20433;-50
2022/01/08 02:12:02;;;;;;;11.80;10.70;;;;;;;2.61;85.85;100584.69;5011642;28;20495;-47
2022/01/08 02:14:32;;;;;;;10.67;9.57;;;;;;;2.60;84.91;100581.22;5012579;28;20528;-49
2022/01/08 02:17:00;;;;;;;13.43;9.70;;;;;;;2.60;84.54;100575.94;5012394;28;20453;-45
2022/01/08 02:19:28;;;;;;;11.93;10.30;;;;;;;2.62;84.35;100567.91;5012339;28;20436;-46
2022/01/08 02:21:59;;;;;;;10.33;9.30;;;;;;;2.61;84.43;100571.50;5011735;28;20477;-48
2022/01/08 02:24:28;;;;;;;10.40;9.00;;;;;;;2.59;84.31;100562.94;5012025;28;20488;-46
2022/01/08 02:26:56;;;;;;;14.90;9.40;;;;;;;2.59;83.71;100563.78;5012336;28;20464;-47
2022/01/08 02:29:25;;;;;;;10.97;10.17;;;;;;;2.61;83.56;100563.63;5011695;28;20430;-46
2022/01/08 02:31:55;;;;;;;11.10;10.07;;;;;;;2.64;83.40;100553.63;5010677;28;20972;-47
2022/01/08 02:34:23;;;;;;;14.00;10.70;;;;;;;2.61;83.90;100555.72;5011822;28;20438;-47
2022/01/08 02:36:51;;;;;;;10.63;9.83;;;;;;;2.62;84.05;100562.66;5011892;28;20453;-47
2022/01/08 02:39:20;;;;;;;12.20;9.87;;;;;;;2.64;83.72;100565.94;5012251;28;20439;-46
2022/01/08 02:41:48;;;;;;;10.50;9.60;;;;;;;2.66;83.64;100566.63;5011511;28;20465;-44
2022/01/08 02:44:15;;;;;;;13.40;9.80;;;;;;;2.66;83.67;100556.91;5011840;28;20476;-44
2022/01/08 02:46:43;;;;;;;12.20;9.70;;;;;;;2.68;84.34;100560.25;5011901;28;20457;-44
2022/01/08 02:49:10;;;;;;;12.57;10.30;;;;;;;2.69;84.55;100558.41;5011970;28;20438;-48
2022/01/08 02:51:38;;;;;;;11.77;10.60;;;;;;;2.69;84.63;100555.78;5002917;28;20469;-44
2022/01/08 02:54:10;;;;;;;11.60;10.50;;;;;;;2.69;85.17;100554.00;4992360;28;20967;-48
2022/01/08 02:56:40;;;;;;;12.77;11.40;;;;;;;2.70;85.16;100550.38;4992426;28;20466;-45
2022/01/08 02:59:08;;;;;;;14.80;10.87;;;;;;;2.73;85.79;100546.63;4992405;28;20434;-44
2022/01/08 03:01:36;;;;;;;11.93;10.80;;;;;;;2.75;86.14;100549.91;4991629;28;20476;-47
2022/01/08 03:04:05;;;;;;;11.73;10.63;;;;;;;2.76;86.63;100551.59;4992017;28;20474;-47
2022/01/08 03:06:33;;;;;;;14.00;10.37;;;;;;;2.73;87.44;100547.44;4991913;28;20474;-47
2022/01/08 03:09:01;;;;;;;14.17;10.17;;;;;;;2.75;87.48;100545.50;4992229;28;20434;-45
2022/01/08 03:11:28;;;;;;;15.10;10.50;;;;;;;2.79;87.25;100546.03;4992564;28;20473;-46
2022/01/08 03:13:57;;;;;;;13.00;11.57;;;;;;;2.75;87.84;100542.84;4996264;28;20430;-44
2022/01/08 03:16:25;;;;;;;12.67;11.50;;;;;;;2.75;87.81;100553.38;4995827;28;20617;-48
2022/01/08 03:18:53;;;;;;;15.60;10.13;;;;;;;2.78;87.53;100544.34;4996277;28;20434;-45
2022/01/08 03:21:22;;;;;;;11.53;10.60;;;;;;;2.77;87.66;100540.09;4995113;28;20833;-50
2022/01/08 03:23:55;;;;;;;11.27;10.37;;;;;;;2.76;87.62;100531.34;4995813;28;20465;-46
2022/01/08 03:26:27;;;;;;;12.67;11.47;;;;;;;2.79;87.16;100525.78;4995892;28;20849;-44
2022/01/08 03:28:55;;;;;;;11.60;10.40;;;;;;;2.76;87.77;100533.16;4996069;28;20415;-48
2022/01/08 03:31:26;;;;;;;12.07;9.77;;;;;;;2.78;87.37;100534.66;4994545;28;20469;-44
2022/01/08 03:33:54;;;;;;;11.53;10.43;;;;;;;2.77;87.32;100527.75;4994421;28;20499;-45
2022/01/08 03:36:24;;;;;;;11.40;10.30;;;;;;;2.73;87.53;100528.19;4994900;28;20457;-44
2022/01/08 03:38:52;;;;;;;11.23;10.13;;;;;;;2.72;86.99;100530.00;4995022;28;20968;-46
2022/01/08 03:41:21;;;;;;;12.40;10.60;;;;;;;2.70;86.53;100529.31;4995138;28;20469;-44
2022/01/08 03:43:50;;;;;;;12.03;10.93;;;;;;;2.72;86.02;100535.25;4995619;28;20488;-44
2022/01/08 03:46:20;;;;;;;11.80;10.67;;;;;;;2.71;85.47;100531.00;4995256;28;20545;-44
2022/01/08 03:49:12;;;;;;;13.00;11.77;;;;;;;2.73;85.22;100526.38;4995683;28;20441;-45
2022/01/08 03:51:40;;;;;;;12.83;11.50;;;;;;;2.74;85.19;100519.31;4994803;28;20497;-47
2022/01/08 03:54:08;;;;;;;12.57;11.27;;;;;;;2.73;84.78;100526.38;4995280;28;20838;-44
2022/01/08 03:56:36;;;;;;;12.60;11.47;;;;;;;2.77;84.46;100513.75;4995466;28;20454;-45
2022/01/08 03:59:03;;;;;;;15.77;11.60;;;;;;;2.77;84.92;100514.59;4995280;28;21004;-45
2022/01/08 04:01:31;;;;;;;13.47;12.13;;;;;;;2.78;85.12;100520.66;4994645;28;20470;-45
2022/01/08 04:04:00;;;;;;;17.70;13.13;;;;;;;2.78;85.05;100513.59;4995185;28;20521;-45
2022/01/08 04:06:27;;;;;;;12.30;11.30;;;;;;;2.82;85.03;100508.03;4995054;28;20561;-44
2022/01/08 04:08:58;;;;;;;13.20;11.27;;;;;;;2.81;84.84;100509.81;4995314;28;20434;-47
2022/01/08 04:11:26;;;;;;;14.93;11.80;;;;;;;2.82;85.04;100510.66;4994583;28;20835;-46
2022/01/08 04:13:54;;;;;;;15.00;12.20;;;;;;;2.85;84.73;100516.44;4995162;28;20533;-48
2022/01/08 04:16:28;;;;;;;14.43;12.93;;;;;;;2.83;84.84;100528.94;4994852;28;20464;-45
2022/01/08 04:18:56;;;;;;;18.10;13.33;;;;;;;2.76;85.09;100523.47;4994925;28;20517;-47
2022/01/08 04:21:59;;;;;;;12.33;11.33;;;;;;;2.72;84.70;100532.63;4994486;28;20469;-45
2022/01/08 04:24:27;;;;;;;15.30;11.23;;;;;;;2.66;85.21;100527.97;4994732;28;20477;-44
2022/01/08 04:26:55;;;;;;;13.93;9.30;;;;;;;2.58;86.67;100525.25;4994699;28;20458;-44
2022/01/08 04:29:22;;;;;;;8.90;8.10;;;;;;;2.53;87.79;100531.97;4994620;28;20440;-49
2022/01/08 04:31:50;;;;;;;8.90;8.20;;;;;;;2.46;88.74;100526.47;4994056;28;20470;-48
2022/01/08 04:34:18;;;;;;;9.90;7.60;;;;;;;2.42;89.85;100519.03;4994820;28;20806;-46
2022/01/08 04:36:47;;;;;;;8.17;7.47;;;;;;;2.39;90.09;100520.13;4994300;28;20458;-47
2022/01/08 04:39:14;;;;;;;8.73;8.13;;;;;;;2.32;90.84;100520.88;4993641;28;20449;-46
2022/01/08 04:41:43;;;;;;;11.33;10.23;;;;;;;2.28;90.79;100520.34;4993029;28;20470;-43
2022/01/08 04:44:11;;;;;;;11.13;10.20;;;;;;;2.26;90.21;100524.13;4993901;28;20493;-45
2022/01/08 04:46:41;;;;;;;11.40;10.30;;;;;;;2.25;90.08;100528.53;4994545;28;20834;-46
2022/01/08 04:49:08;;;;;;;11.30;10.30;;;;;;;2.23;89.38;100536.59;4994533;28;20434;-46
2022/01/08 04:51:36;;;;;;;9.80;8.80;;;;;;;2.27;88.87;100541.56;4993790;28;20466;-45
2022/01/08 04:54:05;;;;;;;11.03;9.40;;;;;;;2.31;87.93;100543.75;4994260;28;20927;-47
2022/01/08 04:56:33;;;;;;;10.67;9.87;;;;;;;2.33;87.70;100530.44;4994017;28;20458;-48
2022/01/08 04:59:01;;;;;;;10.27;8.40;;;;;;;2.35;87.15;100536.38;4994272;28;20517;-44
2022/01/08 05:01:28;;;;;;;8.23;7.50;;;;;;;2.39;87.42;100535.13;4993444;28;20466;-44
2022/01/08 05:03:56;;;;;;;7.77;7.17;;;;;;;2.45;85.77;100524.00;4994267;28;20434;-44
2022/01/08 05:06:24;;;;;;;9.30;8.50;;;;;;;2.48;85.90;100526.31;4992501;28;20482;-46
2022/01/08 05:08:52;;;;;;;9.70;8.80;;;;;;;2.49;86.10;100526.16;4993658;28;20434;-46
2022/01/08 05:11:21;;;;;;;12.47;9.50;;;;;;;2.53;85.82;100531.97;4993200;28;20838;-45
2022/01/08 05:13:50;;;;;;;15.20;10.00;;;;;;;2.56;84.64;100529.03;4993466;28;20545;-45
2022/01/08 05:16:17;;;;;;;11.00;9.90;;;;;;;2.60;83.71;100533.81;4993269;28;20462;-44
2022/01/08 05:18:46;;;;;;;21.67;10.30;;;;;;;2.62;83.11;100525.78;4993935;28;20430;-46
2022/01/08 05:21:20;;;;;;;13.80;10.90;;;;;;;2.69;80.57;100527.66;4992469;28;20462;-49
2022/01/08 05:23:48;;;;;;;12.47;10.03;;;;;;;2.73;79.43;100509.75;4993993;28;20608;-46
2022/01/08 05:26:16;;;;;;;14.57;10.80;;;;;;;2.76;79.83;100506.81;4993545;28;20482;-45
2022/01/08 05:28:45;;;;;;;16.53;10.90;;;;;;;2.79;80.04;100524.94;4993708;28;20440;-48
2022/01/08 05:31:15;;;;;;;10.47;9.53;;;;;;;2.83;78.99;100518.41;4992963;28;20474;-43
2022/01/08 05:33:46;;;;;;;10.90;9.90;;;;;;;2.87;78.48;100519.75;4992905;28;20443;-44
2022/01/08 05:36:14;;;;;;;12.37;10.80;;;;;;;2.91;79.32;100523.75;4992762;28;20459;-43
2022/01/08 05:38:42;;;;;;;12.50;10.90;;;;;;;2.93;79.79;100534.13;4993583;28;20445;-44
2022/01/08 05:41:10;;;;;;;10.33;9.33;;;;;;;2.95;79.67;100532.16;4992301;28;20473;-43
2022/01/08 05:43:38;;;;;;;11.43;10.27;;;;;;;2.97;78.88;100532.84;4992294;28;20434;-44
2022/01/08 05:46:07;;;;;;;12.23;10.47;;;;;;;3.01;79.96;100544.72;4985510;28;20537;-45
2022/01/08 05:48:36;;;;;;;11.80;9.40;;;;;;;2.96;81.16;100528.53;4971790;28;20519;-44
2022/01/08 05:51:04;;;;;;;10.97;9.37;;;;;;;2.98;80.92;100529.22;4984706;28;20520;-45
2022/01/08 05:53:31;;;;;;;12.70;10.10;;;;;;;2.99;80.85;100531.69;4991773;28;20438;-46
2022/01/08 05:55:59;;;;;;;16.97;10.23;;;;;;;3.01;81.00;100544.72;4991546;28;20450;-45
2022/01/08 05:58:26;;;;;;;10.30;9.30;;;;;;;2.97;81.45;100553.91;4991770;28;20441;-45
2022/01/08 06:00:54;;;;;;;14.80;9.10;;;;;;;2.97;80.95;100541.56;4990911;28;20934;-43
2022/01/08 06:03:23;;;;;;;14.83;9.30;;;;;;;2.96;80.02;100545.16;4991685;28;20446;-45
2022/01/08 06:05:51;;;;;;;10.27;9.20;;;;;;;3.02;79.75;100546.38;4991057;28;20548;-44
2022/01/08 06:08:19;;;;;;;10.67;9.60;;;;;;;3.00;80.22;100546.53;4991667;28;20438;-44
2022/01/08 06:10:46;;;;;;;10.07;8.30;;;;;;;3.02;80.69;100541.09;4990662;28;21039;-45
2022/01/08 06:13:14;;;;;;;22.00;8.60;;;;;;;3.04;79.75;100547.06;4990808;28;20891;-46
2022/01/08 06:15:41;;;;;;;9.43;8.53;;;;;;;3.04;80.10;100552.31;4990396;28;20464;-44
2022/01/08 06:18:09;;;;;;;11.87;9.40;;;;;;;3.05;80.14;100544.25;4991408;28;20441;-44
2022/01/08 06:20:38;;;;;;;11.73;8.90;;;;;;;3.03;80.50;100555.94;4991266;28;20438;-46
2022/01/08 06:23:06;;;;;;;12.00;8.33;;;;;;;3.05;80.41;100554.78;4991427;28;20946;-44
2022/01/08 06:25:34;;;;;;;8.60;7.80;;;;;;;3.06;79.83;100561.72;4983949;28;20489;-43
2022/01/08 06:28:01;;;;;;;9.63;7.90;;;;;;;3.09;79.29;100560.59;4971283;28;20435;-44
2022/01/08 06:30:29;;;;;;;10.77;9.10;;;;;;;3.09;79.73;100555.31;4971176;28;20875;-45
2022/01/08 06:32:56;;;;;;;16.23;8.20;;;;;;;3.09;79.37;100555.31;4970692;28;20470;-45
2022/01/08 06:35:24;;;;;;;13.23;8.80;;;;;;;3.10;79.18;100554.34;4971160;28;21036;-45
2022/01/08 06:37:53;;;;;;;10.30;8.37;;;;;;;3.08;78.79;100556.28;4969826;28;20447;-43
2022/01/08 06:40:21;;;;;;;9.20;8.40;;;;;;;3.06;78.33;100553.81;4970680;28;20439;-47
2022/01/08 06:42:49;;;;;;;10.77;8.43;;;;;;;3.06;78.26;100561.72;4974270;28;20555;-47
2022/01/08 06:45:16;;;;;;;16.47;9.53;;;;;;;3.09;77.27;100568.50;4991874;28;20426;-45
2022/01/08 06:47:45;;;;;;;9.17;8.40;;;;;;;3.09;76.94;100566.69;4972445;28;20454;-47
2022/01/08 06:50:13;;;;;;;10.43;8.10;;;;;;;3.11;76.34;100566.53;4971552;28;20813;-44
2022/01/08 06:52:41;;;;;;;9.00;8.20;;;;;;;3.09;76.96;100565.84;4970915;28;20474;-46
2022/01/08 06:55:10;;;;;;;9.50;7.50;;;;;;;3.08;77.67;100567.66;4971320;28;20510;-46
2022/01/08 06:57:38;;;;;;;8.50;7.80;;;;;;;3.09;77.68;100568.50;4990668;28;20820;-44
2022/01/08 07:00:06;;;;;;;8.07;7.40;;;;;;;3.07;78.63;100563.38;4991083;28;20512;-44
2022/01/08 07:02:34;;;;;;;8.27;6.53;;;;;;;3.06;78.35;100566.16;5005621;28;20465;-43
2022/01/08 07:05:02;;;;;;;16.27;7.70;;;;;;;3.05;79.03;100559.22;5009351;28;20932;-43
2022/01/08 07:07:29;;;;;;;9.27;7.07;;;;;;;3.00;79.42;100559.69;5009738;28;20485;-44
2022/01/08 07:09:57;;;;;;;9.23;6.30;;;;;;;2.99;80.02;100554.56;5010276;28;20433;-46
2022/01/08 07:12:26;;;;;;;7.90;7.30;;;;;;;2.94;79.92;100557.69;5009634;28;20465;-45
2022/01/08 07:14:54;;;;;;;9.20;5.93;;;;;;;2.92;79.41;100556.19;5010356;28;20464;-44
2022/01/08 07:17:21;;;;;;;7.53;5.60;;;;;;;2.92;79.14;100558.81;5009637;28;20621;-45
2022/01/08 07:19:49;;;;;;;8.30;6.60;;;;;;;2.84;80.04;100564.81;5010190;28;21075;-50
2022/01/08 07:22:17;;;;;;;11.13;6.73;;;;;;;2.85;79.63;100563.84;5009410;28;20461;-48
2022/01/08 07:24:45;;;;;;;7.63;6.20;;;;;;;2.82;79.26;100561.50;5010463;28;20437;-43
2022/01/08 07:27:13;;;;;;;7.07;6.00;;;;;;;2.82;78.95;100558.06;5009241;28;20481;-47
2022/01/08 07:29:41;;;;;;;11.37;6.40;;;;;;;2.79;77.37;100573.19;5009623;28;20414;-44
2022/01/08 07:32:09;;;;;;;10.73;6.60;;;;;;;2.83;76.58;100564.97;5008990;28;20962;-45
2022/01/08 07:34:37;;;;;;;6.10;5.50;;;;;;;2.87;75.95;100563.72;5009927;28;20513;-44
2022/01/08 07:37:05;;;;;;;10.67;6.87;;;;;;;2.89;76.00;100562.59;5009338;28;20461;-44
2022/01/08 07:39:33;;;;;;;11.60;7.03;;;;;;;2.94;75.73;100559.47;5009981;28;20439;-44
2022/01/08 07:42:01;;;;;;;12.60;7.67;;;;;;;2.92;76.43;100558.81;5009161;28;20477;-46
2022/01/08 07:44:28;;;;;;;12.67;7.60;;;;;;;2.94;76.98;100556.84;5010148;28;20429;-49
2022/01/08 07:46:58;;;;;;;8.60;6.40;;;;;;;2.94;77.48;100551.56;5009419;28;20507;-46
2022/01/08 07:49:26;;;;;;;8.60;6.70;;;;;;;2.93;78.21;100555.22;5010360;28;20430;-48
2022/01/08 07:51:53;;;;;;;7.70;7.00;;;;;;;2.91;78.55;100549.25;5009202;28;20465;-48
2022/01/08 07:54:21;;;;;;;8.20;6.80;;;;;;;2.87;79.42;100543.44;5009992;28;20445;-44
2022/01/08 07:56:49;;;;;;;10.80;6.30;;;;;;;2.89;78.84;100551.22;5009352;28;20461;-44
2022/01/08 07:59:17;;;;;;;14.00;7.20;;;;;;;2.86;79.45;100552.34;5013587;28;20876;-44
2022/01/08 08:01:44;;;;;;;7.40;6.80;;;;;;;2.78;79.80;100549.63;5012666;28;20453;-45
2022/01/08 08:04:13;;;;;;;7.63;6.30;;;;;;;2.76;79.00;100549.78;5012963;28;20962;-46
2022/01/08 08:06:45;;;;;;;6.80;6.10;;;;;;;2.75;78.98;100548.13;5012668;28;20531;-44
2022/01/08 08:09:13;;;;;;;12.30;7.30;;;;;;;2.74;79.16;100557.03;5013156;28;20445;-44
2022/01/08 08:11:41;;;;;;;9.57;7.33;;;;;;;2.66;79.73;100549.03;5012518;28;20475;-44
2022/01/08 08:14:09;;;;;;;8.43;7.63;;;;;;;2.69;79.78;100556.63;5013043;28;20803;-47
2022/01/08 08:16:36;;;;;;;10.00;8.43;;;;;;;2.65;80.16;100557.91;5012643;28;21038;-46
2022/01/08 08:19:04;;;;;;;8.93;8.07;;;;;;;2.63;80.87;100548.50;5013434;28;20437;-44
2022/01/08 08:21:33;;;;;;;9.60;8.70;;;;;;;2.60;80.52;100560.16;5012582;28;20544;-44
2022/01/08 08:24:03;;;;;;;10.33;9.33;;;;;;;2.57;79.47;100560.44;5012974;28;20437;-44
2022/01/08 08:26:31;;;;;;;10.00;9.10;;;;;;;2.64;78.21;100561.53;5012146;28;20477;-46
2022/01/08 08:28:59;;;;;;;10.20;8.73;;;;;;;2.67;78.70;100560.38;5012981;28;20437;-46
2022/01/08 08:31:26;;;;;;;16.20;10.23;;;;;;;2.69;78.87;100555.78;5012355;28;20465;-46
2022/01/08 08:33:54;;;;;;;11.13;10.13;;;;;;;2.72;79.09;100551.06;5013102;28;20433;-44
2022/01/08 08:36:21;;;;;;;13.37;9.77;;;;;;;2.77;79.12;100554.09;5012541;28;20463;-44
2022/01/08 08:38:50;;;;;;;9.37;8.53;;;;;;;2.73;81.13;100550.09;5012978;28;20949;-47
2022/01/08 08:41:18;;;;;;;10.53;9.73;;;;;;;2.75;81.29;100545.50;5011978;28;20471;-48
2022/01/08 08:43:46;;;;;;;22.73;10.20;;;;;;;2.77;80.41;100548.81;5012369;28;20443;-47
2022/01/08 08:46:13;;;;;;;15.27;9.80;;;;;;;2.83;79.36;100549.19;5010491;28;20457;-49
2022/01/08 08:48:43;;;;;;;21.27;11.50;;;;;;;2.83;79.10;100536.84;5012450;28;20473;-46
2022/01/08 08:51:10;;;;;;;10.77;9.80;;;;;;;2.82;80.34;100544.88;5011134;28;20465;-45
2022/01/08 08:53:38;;;;;;;19.33;10.57;;;;;;;2.81;81.19;100546.69;5011458;28;20551;-46
2022/01/08 08:56:07;;;;;;;12.43;9.90;;;;;;;2.77;80.96;100546.19;5011098;28;20463;-47
2022/01/08 08:58:35;;;;;;;13.33;10.40;;;;;;;2.83;79.82;100542.13;5012298;28;20443;-50
2022/01/08 09:01:03;;;;;;;12.10;10.57;;;;;;;2.86;79.58;100535.72;5011721;28;20984;-46
2022/01/08 09:03:31;;;;;;;11.83;10.73;;;;;;;2.89;78.70;100548.56;5012081;28;21042;-44
2022/01/08 09:05:58;;;;;;;13.47;11.03;;;;;;;2.94;78.95;100543.66;5012016;28;20465;-47
2022/01/08 09:08:26;;;;;;;12.03;11.03;;;;;;;2.96;79.45;100547.81;5011863;28;20560;-49
2022/01/08 09:10:54;;;;;;;13.27;11.73;;;;;;;3.05;79.39;100546.06;5011649;28;20524;-49
2022/01/08 09:13:25;;;;;;;14.13;11.47;;;;;;;3.13;79.71;100546.13;5011173;28;20443;-48
2022/01/08 09:15:53;;;;;;;13.23;11.00;;;;;;;3.25;78.69;100555.44;5011796;28;20462;-46
2022/01/08 09:18:21;;;;;;;12.73;9.70;;;;;;;3.42;77.83;100557.22;5012096;28;20433;-44
2022/01/08 09:20:49;;;;;;;12.17;10.90;;;;;;;3.48;80.48;100564.50;5011421;28;20516;-46
2022/01/08 09:23:17;;;;;;;11.97;10.97;;;;;;;3.56;81.79;100561.91;5011558;28;20524;-49
2022/01/08 09:25:44;;;;;;;11.70;10.73;;;;;;;3.62;83.76;100556.00;5011542;28;20547;-45
2022/01/08 09:28:12;;;;;;;11.73;10.53;;;;;;;3.71;84.75;100560.34;5011085;28;20508;-44
2022/01/08 09:30:41;;;;;;;13.20;11.70;;;;;;;3.74;87.06;100560.03;5010254;28;20528;-46
2022/01/08 09:33:08;;;;;;;12.97;10.17;;;;;;;3.84;88.04;100566.03;5011024;28;20445;-49
2022/01/08 09:35:36;;;;;;;13.27;9.03;;;;;;;3.94;88.42;100565.09;5011154;28;21178;-45
2022/01/08 09:38:04;;;;;;;9.07;7.80;;;;;;;3.97;90.10;100567.41;5011541;28;20443;-47
2022/01/08 09:40:31;;;;;;;14.03;8.60;;;;;;;3.97;91.64;100564.75;5011455;28;20437;-48
2022/01/08 09:43:00;;;;;;;8.10;7.30;;;;;;;4.00;92.13;100569.72;5010695;28;20488;-47
2022/01/08 09:45:27;;;;;;;7.87;6.97;;;;;;;3.98;93.16;100569.03;5011164;28;20425;-50
2022/01/08 09:47:56;;;;;;;9.70;6.67;;;;;;;4.04;92.07;100569.25;5010618;28;20500;-46
2022/01/08 09:50:24;;;;;;;11.57;8.00;;;;;;;4.07;92.97;100563.63;5010385;28;20437;-46
2022/01/08 09:52:57;;;;;;;9.80;7.40;;;;;;;4.09;92.56;100569.56;5009841;28;20847;-46
2022/01/08 09:55:25;;;;;;;7.30;6.60;;;;;;;4.14;93.03;100571.75;5010444;28;20433;-46
2022/01/08 09:57:52;;;;;;;13.67;6.43;;;;;;;4.20;92.35;100565.84;5010130;28;20445;-48
2022/01/08 10:00:21;;;;;;;7.57;6.80;;;;;;;4.26;92.47;100568.66;5010357;28;21081;-48
2022/01/08 10:02:51;;;;;;;9.50;6.80;;;;;;;4.34;92.76;100568.69;5009646;28;20461;-45
2022/01/08 10:05:20;;;;;;;7.00;6.60;;;;;;;4.36;93.18;100566.72;5010110;28;20445;-46
2022/01/08 10:07:58;;;;;;;7.30;6.60;;;;;;;4.39;93.73;100562.94;5010392;28;20483;-44
2022/01/08 10:10:27;;;;;;;8.63;7.73;;;;;;;4.39;94.24;100563.75;5010642;28;20439;-45
2022/01/08 10:12:58;;;;;;;14.37;6.40;;;;;;;4.47;93.51;100547.94;5010329;28;20614;-45
2022/01/08 10:18:21;;;;;;;8.30;7.20;;;;;;;4.60;94.14;100549.28;5010489;28;20433;-47
2022/01/08 10:20:51;;;;;;;7.77;6.10;;;;;;;4.66;94.44;100546.78;5042133;23;20481;-50
2022/01/08 10:23:20;;;;;;;8.77;6.30;;;;;;;4.79;94.33;100538.41;5029350;28;20435;-47
2022/01/08 10:25:57;;;;;;;11.43;6.87;;;;;;;4.85;95.26;100540.38;5008483;28;20515;-48
2022/01/08 10:28:36;;;;;;;7.77;7.00;;;;;;;4.83;95.62;100540.56;5010710;28;20473;-45
2022/01/08 10:31:11;;;;;;;12.47;7.30;;;;;;;4.88;95.95;100546.16;4990197;28;20476;-46
2022/01/08 10:33:40;;;;;;;13.70;6.70;;;;;;;4.91;95.74;100543.19;4990831;28;20795;-45
2022/01/08 10:36:09;;;;;;;6.87;6.27;;;;;;;5.02;95.49;100529.66;4990504;28;20526;-49
2022/01/08 10:38:37;;;;;;;8.23;7.33;;;;;;;5.10;96.15;100534.13;4991304;28;20529;-46
2022/01/08 10:41:14;;;;;;;7.53;6.30;;;;;;;5.29;95.97;100535.56;4990091;28;20507;-46
2022/01/08 10:43:42;;;;;;;19.73;6.80;;;;;;;5.42;96.30;100526.13;4984941;28;20434;-45
2022/01/08 10:46:13;;;;;;;8.57;7.07;;;;;;;5.50;96.50;100523.47;4990393;28;20434;-50
2022/01/08 10:48:44;;;;;;;11.37;7.10;;;;;;;5.52;95.61;100524.16;4990671;28;21000;-47
2022/01/08 10:51:19;;;;;;;8.00;6.03;;;;;;;5.47;95.69;100515.03;4990020;28;20565;-46
2022/01/08 10:53:52;;;;;;;7.13;6.70;;;;;;;5.44;95.87;100513.56;4990484;28;20438;-49
2022/01/08 10:56:24;;;;;;;10.47;8.47;;;;;;;5.49;96.14;100511.25;4990080;28;20521;-46
2022/01/08 10:58:55;;;;;;;9.10;7.10;;;;;;;5.49;95.66;100513.91;4990357;28;20432;-47
2022/01/08 11:01:37;;;;;;;8.10;6.97;;;;;;;5.47;95.66;100512.41;4990869;28;20486;-51
2022/01/08 11:04:04;;;;;;;6.77;6.30;;;;;;;5.53;95.58;100501.13;4991714;28;20513;-48
2022/01/08 11:06:34;;;;;;;10.73;6.90;;;;;;;5.52;95.01;100505.63;4990412;28;20434;-46
2022/01/08 11:09:02;;;;;;;8.83;6.70;;;;;;;5.52;95.08;100496.88;4991535;28;20474;-48
2022/01/08 11:11:31;;;;;;;9.50;7.03;;;;;;;5.49;95.75;100486.63;4991441;28;20545;-44
2022/01/08 11:14:07;;;;;;;11.33;6.63;;;;;;;5.42;95.20;100498.88;4991887;28;20469;-48
2022/01/08 11:16:35;;;;;;;12.97;7.10;;;;;;;5.42;95.92;100494.41;4992066;28;20516;-49
2022/01/08 11:19:04;;;;;;;7.33;6.23;;;;;;;5.43;95.63;100479.38;4988111;28;20572;-47
2022/01/08 11:21:34;;;;;;;9.27;6.77;;;;;;;5.42;95.73;100475.06;4989558;28;20466;-52
2022/01/08 11:24:03;;;;;;;33.73;7.80;;;;;;;5.44;94.77;100475.72;4989945;28;20518;-47
2022/01/08 11:26:30;;;;;;;6.93;6.33;;;;;;;5.36;95.15;100468.63;4990255;28;20807;-47
2022/01/08 11:29:02;;;;;;;9.60;7.10;;;;;;;5.34;95.28;100457.41;4990437;28;20489;-48
2022/01/08 11:31:33;;;;;;;9.90;6.40;;;;;;;5.27;94.63;100452.97;4990333;28;20474;-48
2022/01/08 11:34:07;;;;;;;7.63;5.90;;;;;;;5.21;94.48;100454.47;4994763;28;20524;-48
2022/01/08 11:36:37;;;;;;;6.70;6.30;;;;;;;5.20;94.88;100446.69;4994401;28;20445;-51
2022/01/08 11:39:08;;;;;;;6.40;6.00;;;;;;;5.27;95.10;100452.97;4989877;28;20918;-48
2022/01/08 11:41:35;;;;;;;9.57;7.00;;;;;;;5.28;94.66;100444.03;4973595;28;20562;-50
2022/01/08 11:44:04;;;;;;;10.10;6.33;;;;;;;5.18;94.62;100444.22;4974239;28;20443;-49
2022/01/08 11:46:34;;;;;;;11.63;6.20;;;;;;;5.17;94.39;100434.63;4974268;28;20446;-48
2022/01/08 11:49:02;;;;;;;13.70;6.43;;;;;;;5.17;95.29;100436.47;4974427;28;20988;-48